Time;durP1;ratioP1;P1;durP2;ratioP2;P2;SDS_P1;SDS_P2;PMS_P1;PMS_P2;Temp;Humidity;BMP_temperature;BMP_pressure;BME280_temperature;BME280_humidity;BME280_pressure;Samples;Min_cycle;Max_cycle;Signal;HPM_P1;HPM_P2
2023/10/25 00:00:48;;;;;;;5.20;4.90;;;;;;;;;;5053201;28;20433;-61
2023/10/25 00:03:16;;;;;;;4.60;4.37;;;;;;;;;;5052800;28;20866;-61
2023/10/25 00:05:44;;;;;;;4.47;4.37;;;;;;;;;;5052887;28;20823;-61
2023/10/25 00:08:10;;;;;;;5.00;4.80;;;;;;;;;;5052888;28;20505;-61
2023/10/25 00:10:39;;;;;;;4.73;4.33;;;;;;;;;;5052843;28;20854;-61
2023/10/25 00:13:05;;;;;;;4.93;4.70;;;;;;;;;;5052777;28;20410;-61
2023/10/25 00:15:31;;;;;;;5.30;5.00;;;;;;;;;;5052666;28;21006;-61
2023/10/25 00:17:57;;;;;;;3.97;3.87;;;;;;;;;;5053011;28;20407;-61
2023/10/25 00:20:23;;;;;;;5.17;4.67;;;;;;;;;;5052588;28;20464;-61
2023/10/25 00:22:49;;;;;;;5.53;4.27;;;;;;;;;;5052681;28;20454;-61
2023/10/25 00:25:15;;;;;;;4.47;4.27;;;;;;;;;;5052560;28;20407;-61
2023/10/25 00:27:41;;;;;;;4.20;4.10;;;;;;;;;;5052471;28;20456;-61
2023/10/25 00:30:07;;;;;;;4.53;4.10;;;;;;;;;;5052545;28;20819;-61
2023/10/25 00:32:35;;;;;;;3.73;3.63;;;;;;;;;;5051164;28;20435;-61
2023/10/25 00:35:01;;;;;;;3.67;3.57;;;;;;;;;;5052392;28;20414;-61
2023/10/25 00:37:27;;;;;;;4.40;4.20;;;;;;;;;;5052405;28;20747;-61
2023/10/25 00:39:56;;;;;;;3.80;3.70;;;;;;;;;;5052413;28;20423;-61
2023/10/25 00:42:25;;;;;;;4.00;3.90;;;;;;;;;;5052294;28;20553;-61
2023/10/25 00:44:51;;;;;;;4.00;3.80;;;;;;;;;;5052515;28;20488;-61
2023/10/25 00:47:17;;;;;;;3.70;3.60;;;;;;;;;;5052308;28;20961;-61
2023/10/25 00:49:43;;;;;;;6.13;3.70;;;;;;;;;;5054139;28;20411;-61
2023/10/25 00:52:09;;;;;;;4.30;4.03;;;;;;;;;;5056509;28;20418;-61
2023/10/25 00:54:36;;;;;;;3.57;3.47;;;;;;;;;;5056390;28;20422;-61
2023/10/25 00:57:03;;;;;;;9.27;3.47;;;;;;;;;;5056487;28;20862;-61
2023/10/25 00:59:29;;;;;;;3.77;3.67;;;;;;;;;;5056309;28;20407;-61
2023/10/25 01:01:56;;;;;;;4.27;3.90;;;;;;;;;;5056139;28;20521;-61
2023/10/25 01:04:22;;;;;;;7.13;3.83;;;;;;;;;;5056232;28;20798;-61
2023/10/25 01:06:48;;;;;;;3.97;3.60;;;;;;;;;;5055905;28;20411;-61
2023/10/25 01:09:14;;;;;;;3.50;3.40;;;;;;;;;;5056236;28;20513;-61
2023/10/25 01:11:41;;;;;;;7.03;3.20;;;;;;;;;;5056124;28;20434;-61
2023/10/25 01:14:07;;;;;;;3.00;3.00;;;;;;;;;;5056194;28;20486;-61
2023/10/25 01:16:33;;;;;;;2.90;2.80;;;;;;;;;;5055976;28;20415;-61
2023/10/25 01:18:59;;;;;;;3.00;2.90;;;;;;;;;;5056345;28;20753;-61
2023/10/25 01:21:25;;;;;;;2.83;2.83;;;;;;;;;;5055809;28;20555;-61
2023/10/25 01:23:53;;;;;;;2.90;2.70;;;;;;;;;;5056061;28;20536;-61
2023/10/25 01:26:19;;;;;;;3.20;2.90;;;;;;;;;;5054706;28;20797;-61
2023/10/25 01:28:47;;;;;;;3.47;3.20;;;;;;;;;;5055888;28;20414;-61
2023/10/25 01:31:15;;;;;;;3.27;3.07;;;;;;;;;;5055820;28;20439;-61
2023/10/25 01:33:41;;;;;;;3.53;2.93;;;;;;;;;;5055772;28;20808;-61
2023/10/25 01:36:07;;;;;;;4.00;2.90;;;;;;;;;;5055829;28;20484;-61
2023/10/25 01:38:33;;;;;;;2.53;2.43;;;;;;;;;;5055751;28;20435;-61
2023/10/25 01:40:59;;;;;;;2.40;2.40;;;;;;;;;;5055532;28;20837;-61
2023/10/25 01:43:25;;;;;;;3.20;2.60;;;;;;;;;;5055638;28;20422;-61
2023/10/25 01:45:51;;;;;;;2.63;2.53;;;;;;;;;;5055873;28;20430;-60
2023/10/25 01:48:19;;;;;;;3.37;3.17;;;;;;;;;;5055681;28;20414;-61
2023/10/25 01:50:48;;;;;;;2.57;2.47;;;;;;;;;;5055507;28;20415;-61
2023/10/25 01:53:14;;;;;;;3.43;2.17;;;;;;;;;;5055426;28;20437;-61
2023/10/25 01:55:40;;;;;;;2.70;2.50;;;;;;;;;;5055420;28;20426;-61
2023/10/25 01:58:06;;;;;;;2.87;2.60;;;;;;;;;;5055462;28;20432;-61
2023/10/25 02:00:34;;;;;;;2.57;2.57;;;;;;;;;;5054392;28;20633;-61
2023/10/25 02:03:03;;;;;;;2.80;2.30;;;;;;;;;;5054670;28;20532;-61
2023/10/25 02:05:31;;;;;;;2.40;2.40;;;;;;;;;;5055091;28;20950;-61
2023/10/25 02:07:57;;;;;;;2.93;2.13;;;;;;;;;;5054946;28;20448;-61
2023/10/25 02:10:26;;;;;;;2.30;2.07;;;;;;;;;;5055155;28;20433;-61
2023/10/25 02:12:52;;;;;;;2.00;2.00;;;;;;;;;;5054967;28;20417;-61
2023/10/25 02:15:20;;;;;;;2.17;2.17;;;;;;;;;;5055045;28;20503;-61
2023/10/25 02:17:46;;;;;;;2.20;2.20;;;;;;;;;;5054799;28;20485;-61
2023/10/25 02:20:12;;;;;;;2.03;2.03;;;;;;;;;;5054697;28;20823;-61
2023/10/25 02:22:38;;;;;;;2.10;2.00;;;;;;;;;;5054727;28;20545;-61
2023/10/25 02:25:04;;;;;;;5.33;1.90;;;;;;;;;;5054910;28;20494;-61
2023/10/25 02:27:30;;;;;;;2.77;2.60;;;;;;;;;;5054736;28;20431;-61
2023/10/25 02:29:56;;;;;;;2.03;1.93;;;;;;;;;;5054643;28;20484;-61
2023/10/25 02:32:22;;;;;;;5.00;2.30;;;;;;;;;;5054568;28;20435;-61
2023/10/25 02:34:48;;;;;;;1.70;1.70;;;;;;;;;;5054590;28;20454;-61
2023/10/25 02:37:17;;;;;;;1.90;1.83;;;;;;;;;;5054539;28;20447;-61
2023/10/25 02:39:43;;;;;;;7.70;1.90;;;;;;;;;;5053228;28;20945;-61
2023/10/25 02:42:12;;;;;;;9.23;2.20;;;;;;;;;;5054444;28;20476;-61
2023/10/25 02:44:38;;;;;;;1.83;1.73;;;;;;;;;;5054371;28;20456;-61
2023/10/25 02:47:05;;;;;;;1.90;1.80;;;;;;;;;;5054194;28;20469;-61
2023/10/25 02:49:34;;;;;;;2.30;2.30;;;;;;;;;;5054484;28;20457;-61
2023/10/25 02:52:00;;;;;;;1.97;1.97;;;;;;;;;;5054208;28;20439;-61
2023/10/25 02:54:28;;;;;;;1.70;1.60;;;;;;;;;;5054274;28;20419;-61
2023/10/25 02:56:57;;;;;;;3.40;1.97;;;;;;;;;;5054380;28;20441;-61
2023/10/25 02:59:22;;;;;;;1.70;1.60;;;;;;;;;;5054127;28;20766;-61
2023/10/25 03:01:48;;;;;;;1.50;1.50;;;;;;;;;;5054027;28;20557;-61
2023/10/25 03:04:14;;;;;;;2.00;1.87;;;;;;;;;;5054179;28;20862;-61
2023/10/25 03:06:40;;;;;;;2.37;2.27;;;;;;;;;;5053931;28;20429;-61
2023/10/25 03:09:06;;;;;;;2.20;2.10;;;;;;;;;;5054037;28;20415;-61
2023/10/25 03:11:35;;;;;;;2.17;2.07;;;;;;;;;;5052690;28;20418;-61
2023/10/25 03:14:01;;;;;;;2.20;2.00;;;;;;;;;;5053623;28;20430;-61
2023/10/25 03:16:27;;;;;;;2.57;2.37;;;;;;;;;;5052764;28;20893;-61
2023/10/25 03:18:53;;;;;;;2.60;2.50;;;;;;;;;;5053809;28;20418;-61
2023/10/25 03:21:18;;;;;;;2.87;2.70;;;;;;;;;;5053472;28;20886;-61
2023/10/25 03:23:44;;;;;;;2.53;2.43;;;;;;;;;;5052366;28;20422;-61
2023/10/25 03:26:10;;;;;;;3.13;3.03;;;;;;;;;;5053601;28;20472;-61
2023/10/25 03:28:36;;;;;;;3.63;3.13;;;;;;;;;;5053646;28;20535;-61
2023/10/25 03:31:06;;;;;;;3.47;3.27;;;;;;;;;;5053671;28;20578;-61
2023/10/25 03:33:35;;;;;;;3.20;3.10;;;;;;;;;;5053436;28;20417;-61
2023/10/25 03:36:01;;;;;;;6.40;3.50;;;;;;;;;;5053491;28;20430;-61
2023/10/25 03:38:27;;;;;;;3.17;3.07;;;;;;;;;;5053276;28;20971;-61
2023/10/25 03:41:00;;;;;;;3.10;3.00;;;;;;;;;;5053379;28;20411;-61
2023/10/25 03:43:26;;;;;;;7.73;4.10;;;;;;;;;;5053249;28;20466;-61
2023/10/25 03:45:54;;;;;;;3.63;3.53;;;;;;;;;;5053216;28;20434;-61
2023/10/25 03:48:20;;;;;;;3.27;3.17;;;;;;;;;;5053102;28;20438;-61
2023/10/25 03:50:49;;;;;;;5.57;5.27;;;;;;;;;;5053035;28;20929;-61
2023/10/25 03:53:15;;;;;;;5.70;5.30;;;;;;;;;;5053125;28;20445;-61
2023/10/25 03:55:40;;;;;;;12.90;11.70;;;;;;;;;;5053092;28;20446;-61
2023/10/25 03:58:06;;;;;;;5.83;5.57;;;;;;;;;;5051936;28;20458;-61
2023/10/25 04:00:33;;;;;;;6.30;6.00;;;;;;;;;;5053091;28;20427;-61
2023/10/25 04:02:59;;;;;;;7.37;6.67;;;;;;;;;;5052860;28;20469;-61
2023/10/25 04:05:25;;;;;;;6.57;5.97;;;;;;;;;;5053039;28;20894;-61
2023/10/25 04:07:53;;;;;;;5.63;5.33;;;;;;;;;;5053412;28;20437;-61
2023/10/25 04:10:19;;;;;;;5.00;4.80;;;;;;;;;;5052795;28;20415;-61
2023/10/25 04:12:48;;;;;;;4.47;4.27;;;;;;;;;;5052550;28;20441;-61
2023/10/25 04:15:16;;;;;;;4.07;3.67;;;;;;;;;;5052647;28;20410;-61
2023/10/25 04:17:44;;;;;;;4.30;4.10;;;;;;;;;;5052859;28;20446;-61
2023/10/25 04:20:11;;;;;;;4.47;4.17;;;;;;;;;;5052460;28;20450;-61
2023/10/25 04:22:37;;;;;;;4.27;3.73;;;;;;;;;;5052486;28;20608;-61
2023/10/25 04:25:03;;;;;;;3.73;3.63;;;;;;;;;;5051834;28;20416;-61
2023/10/25 04:27:32;;;;;;;9.13;4.33;;;;;;;;;;5052481;28;20415;-61
2023/10/25 04:30:01;;;;;;;3.60;3.50;;;;;;;;;;5052447;28;20442;-61
2023/10/25 04:32:27;;;;;;;9.10;8.33;;;;;;;;;;5052459;28;20438;-61
2023/10/25 04:34:53;;;;;;;13.53;5.90;;;;;;;;;;5052361;28;20414;-61
2023/10/25 04:37:19;;;;;;;5.30;4.90;;;;;;;;;;5051150;28;20811;-61
2023/10/25 04:39:45;;;;;;;5.17;4.87;;;;;;;;;;5052477;28;20395;-61
2023/10/25 04:42:13;;;;;;;4.03;3.77;;;;;;;;;;5052343;28;20478;-60
2023/10/25 04:44:41;;;;;;;3.57;3.37;;;;;;;;;;5052803;28;20978;-61
2023/10/25 04:47:10;;;;;;;5.50;3.70;;;;;;;;;;5052834;28;20774;-61
2023/10/25 04:49:37;;;;;;;4.30;4.00;;;;;;;;;;5052402;28;20821;-61
2023/10/25 04:52:03;;;;;;;4.40;4.10;;;;;;;;;;5052337;28;20430;-61
2023/10/25 04:54:31;;;;;;;25.97;18.20;;;;;;;;;;5052190;28;20498;-61
2023/10/25 04:57:00;;;;;;;6.57;6.17;;;;;;;;;;5052162;28;20426;-60
2023/10/25 04:59:28;;;;;;;5.20;4.87;;;;;;;;;;5052370;28;20402;-60
2023/10/25 05:01:54;;;;;;;4.50;4.40;;;;;;;;;;5050834;28;20473;-61
2023/10/25 05:04:20;;;;;;;4.50;4.20;;;;;;;;;;5052445;28;20431;-61
2023/10/25 05:06:47;;;;;;;4.50;4.10;;;;;;;;;;5052344;28;20406;-61
2023/10/25 05:09:13;;;;;;;5.37;4.90;;;;;;;;;;5052095;28;20481;-61
2023/10/25 05:11:39;;;;;;;7.90;4.80;;;;;;;;;;5052427;28;20770;-61
2023/10/25 05:14:07;;;;;;;5.13;4.93;;;;;;;;;;5052010;28;20450;-61
2023/10/25 05:16:33;;;;;;;5.10;4.70;;;;;;;;;;5052069;28;20419;-61
2023/10/25 05:19:02;;;;;;;4.13;3.90;;;;;;;;;;5052070;28;20443;-61
2023/10/25 05:21:31;;;;;;;7.80;4.80;;;;;;;;;;5052088;28;20459;-61
2023/10/25 05:23:57;;;;;;;21.20;15.10;;;;;;;;;;5051828;28;21015;-61
2023/10/25 05:26:26;;;;;;;107.90;59.40;;;;;;;;;;5051991;28;20465;-61
2023/10/25 05:28:52;;;;;;;16.50;9.67;;;;;;;;;;5052014;28;20415;-61
2023/10/25 05:31:22;;;;;;;34.03;22.67;;;;;;;;;;5051878;28;20484;-61
2023/10/25 05:33:48;;;;;;;27.47;18.27;;;;;;;;;;5051940;28;20438;-61
2023/10/25 05:36:14;;;;;;;21.07;16.17;;;;;;;;;;5054040;28;20395;-61
2023/10/25 05:38:40;;;;;;;64.37;36.23;;;;;;;;;;5055683;28;20486;-61
2023/10/25 05:41:06;;;;;;;30.23;20.33;;;;;;;;;;5055242;28;20920;-61
2023/10/25 05:43:37;;;;;;;13.83;12.40;;;;;;;;;;5055515;28;20437;-61
2023/10/25 05:46:03;;;;;;;9.50;8.60;;;;;;;;;;5055893;28;20406;-61
2023/10/25 05:48:31;;;;;;;15.13;11.20;;;;;;;;;;5055377;28;20928;-61
2023/10/25 05:51:04;;;;;;;8.70;7.80;;;;;;;;;;5055338;28;20445;-61
2023/10/25 05:53:32;;;;;;;7.77;7.10;;;;;;;;;;5053950;28;20443;-61
2023/10/25 05:55:58;;;;;;;6.47;5.97;;;;;;;;;;5055914;28;20861;-61
2023/10/25 05:58:24;;;;;;;5.87;5.50;;;;;;;;;;5054802;28;20427;-61
2023/10/25 06:00:52;;;;;;;6.10;5.60;;;;;;;;;;5055417;28;20465;-61
2023/10/25 06:03:21;;;;;;;5.50;5.10;;;;;;;;;;5054892;28;20987;-61
2023/10/25 06:05:51;;;;;;;4.90;4.70;;;;;;;;;;5055027;28;20425;-61
2023/10/25 06:08:17;;;;;;;4.80;4.50;;;;;;;;;;5055042;28;20413;-61
2023/10/25 06:10:43;;;;;;;5.83;5.30;;;;;;;;;;5055118;28;20471;-61
2023/10/25 06:13:09;;;;;;;5.17;4.77;;;;;;;;;;5055025;28;20452;-61
2023/10/25 06:15:38;;;;;;;4.83;4.70;;;;;;;;;;5055029;28;20451;-61
2023/10/25 06:18:07;;;;;;;5.00;4.67;;;;;;;;;;5054764;28;20410;-61
2023/10/25 06:20:34;;;;;;;7.97;7.07;;;;;;;;;;5054836;28;20454;-61
2023/10/25 06:23:00;;;;;;;9.83;5.03;;;;;;;;;;5054751;28;20498;-61
2023/10/25 06:25:27;;;;;;;9.30;8.20;;;;;;;;;;5054903;28;20422;-61
2023/10/25 06:27:55;;;;;;;6.50;6.10;;;;;;;;;;5054529;28;20765;-61
2023/10/25 06:30:21;;;;;;;7.13;6.47;;;;;;;;;;5054578;28;20502;-61
2023/10/25 06:32:50;;;;;;;11.57;6.40;;;;;;;;;;5054453;28;20477;-61
2023/10/25 06:35:17;;;;;;;5.87;5.37;;;;;;;;;;5054529;28;20796;-61
2023/10/25 06:37:43;;;;;;;5.40;5.00;;;;;;;;;;5054771;28;20403;-61
2023/10/25 06:40:09;;;;;;;5.63;5.33;;;;;;;;;;5054376;28;20932;-61
2023/10/25 06:42:35;;;;;;;45.60;33.63;;;;;;;;;;5054162;28;20564;-61
2023/10/25 06:45:02;;;;;;;12.27;7.50;;;;;;;;;;5054191;28;20487;-61
2023/10/25 06:47:31;;;;;;;44.43;26.03;;;;;;;;;;5053735;28;20862;-61
2023/10/25 06:49:59;;;;;;;168.50;87.00;;;;;;;;;;5054353;28;20417;-61
2023/10/25 06:52:25;;;;;;;82.00;44.27;;;;;;;;;;5054214;28;20419;-61
2023/10/25 06:54:51;;;;;;;118.80;66.87;;;;;;;;;;5054206;28;20434;-61
2023/10/25 06:57:17;;;;;;;8.70;7.90;;;;;;;;;;5054280;28;20823;-61
2023/10/25 06:59:44;;;;;;;33.17;18.63;;;;;;;;;;5054134;28;20439;-61
2023/10/25 07:02:13;;;;;;;6.03;5.57;;;;;;;;;;5053992;28;20492;-61
2023/10/25 07:04:43;;;;;;;24.40;13.00;;;;;;;;;;5054015;28;20455;-60
2023/10/25 07:07:09;;;;;;;7.10;3.60;;;;;;;;;;5052860;28;20941;-61
2023/10/25 07:09:35;;;;;;;3.80;2.40;;;;;;;;;;5054054;28;20783;-61
2023/10/25 07:12:01;;;;;;;2.43;2.43;;;;;;;;;;5054034;28;20510;-61
2023/10/25 07:14:27;;;;;;;2.50;2.40;;;;;;;;;;5053680;28;20883;-61
2023/10/25 07:16:53;;;;;;;3.17;2.87;;;;;;;;;;5053889;28;20414;-61
2023/10/25 07:19:19;;;;;;;3.13;2.17;;;;;;;;;;5053699;28;20623;-61
2023/10/25 07:21:45;;;;;;;9.50;8.50;;;;;;;;;;5053610;28;20454;-61
2023/10/25 07:24:14;;;;;;;20.40;14.27;;;;;;;;;;5053540;28;20936;-62
2023/10/25 07:26:40;;;;;;;15.27;12.40;;;;;;;;;;5053516;28;20427;-62
2023/10/25 07:29:05;;;;;;;19.03;13.87;;;;;;;;;;5053598;28;20445;-62
2023/10/25 07:31:31;;;;;;;25.90;18.33;;;;;;;;;;5053553;28;20417;-62
2023/10/25 07:33:57;;;;;;;16.50;13.57;;;;;;;;;;5053549;28;20446;-62
2023/10/25 07:36:24;;;;;;;10.73;9.73;;;;;;;;;;5053558;28;20843;-62
2023/10/25 07:38:53;;;;;;;5.40;4.97;;;;;;;;;;5053295;28;20435;-62
2023/10/25 07:41:19;;;;;;;4.87;4.47;;;;;;;;;;5053357;28;20400;-62
2023/10/25 07:43:47;;;;;;;6.00;4.20;;;;;;;;;;5053191;28;20399;-62
2023/10/25 07:46:13;;;;;;;4.03;3.73;;;;;;;;;;5053200;28;20509;-62
2023/10/25 07:48:40;;;;;;;4.80;4.50;;;;;;;;;;5053151;28;20494;-62
2023/10/25 07:51:06;;;;;;;3.80;2.77;;;;;;;;;;5052060;28;20454;-62
2023/10/25 07:53:32;;;;;;;2.50;2.30;;;;;;;;;;5053138;28;20832;-62
2023/10/25 07:56:01;;;;;;;2.30;2.30;;;;;;;;;;5053145;28;20450;-62
2023/10/25 07:58:30;;;;;;;3.03;2.60;;;;;;;;;;5052578;28;20403;-62
2023/10/25 08:00:56;;;;;;;6.17;3.17;;;;;;;;;;5052385;28;20410;-62
2023/10/25 08:03:22;;;;;;;5.60;4.30;;;;;;;;;;5052871;28;20520;-62
2023/10/25 08:05:48;;;;;;;9.23;6.97;;;;;;;;;;5053097;28;20411;-62
2023/10/25 08:08:14;;;;;;;17.90;13.83;;;;;;;;;;5052915;28;20472;-62
2023/10/25 08:10:40;;;;;;;15.87;8.40;;;;;;;;;;5052674;28;20445;-62
2023/10/25 08:13:06;;;;;;;10.10;9.20;;;;;;;;;;5052752;28;20797;-62
2023/10/25 08:15:32;;;;;;;17.03;8.50;;;;;;;;;;5052813;28;20504;-62
2023/10/25 08:17:58;;;;;;;8.33;7.83;;;;;;;;;;5051475;28;20431;-62
2023/10/25 08:20:26;;;;;;;13.93;9.20;;;;;;;;;;5052615;28;20462;-62
2023/10/25 08:22:52;;;;;;;7.07;6.63;;;;;;;;;;5052662;28;20867;-62
2023/10/25 08:25:18;;;;;;;16.73;13.27;;;;;;;;;;5052591;28;20403;-62
2023/10/25 08:27:44;;;;;;;7.03;6.67;;;;;;;;;;5052481;28;20414;-62
2023/10/25 08:30:10;;;;;;;9.67;8.67;;;;;;;;;;5051242;28;20871;-62
2023/10/25 08:32:36;;;;;;;7.67;7.03;;;;;;;;;;5052643;28;20415;-62
2023/10/25 08:35:02;;;;;;;13.30;12.30;;;;;;;;;;5052583;28;20457;-62
2023/10/25 08:37:28;;;;;;;9.33;8.63;;;;;;;;;;5052463;28;20898;-62
2023/10/25 08:39:54;;;;;;;7.90;7.30;;;;;;;;;;5051121;28;20448;-62
2023/10/25 08:42:23;;;;;;;7.63;5.10;;;;;;;;;;5052275;28;20549;-62
2023/10/25 08:44:51;;;;;;;3.97;3.87;;;;;;;;;;5052190;28;20440;-62
2023/10/25 08:47:18;;;;;;;6.50;4.47;;;;;;;;;;5052364;28;20411;-62
2023/10/25 08:49:44;;;;;;;5.07;4.77;;;;;;;;;;5052256;28;20493;-62
2023/10/25 08:52:12;;;;;;;4.70;4.50;;;;;;;;;;5052376;28;20843;-62
2023/10/25 08:54:43;;;;;;;4.30;3.97;;;;;;;;;;5052289;28;20472;-62
2023/10/25 08:57:09;;;;;;;6.33;5.77;;;;;;;;;;5052612;28;20495;-62
2023/10/25 08:59:42;;;;;;;6.83;6.30;;;;;;;;;;5052133;28;20871;-62
2023/10/25 09:02:10;;;;;;;9.70;8.50;;;;;;;;;;5052203;28;20452;-62
2023/10/25 09:04:36;;;;;;;163.97;98.30;;;;;;;;;;5052227;28;20478;-62
2023/10/25 09:07:02;;;;;;;19.40;13.27;;;;;;;;;;5052189;28;20408;-63
2023/10/25 09:09:39;;;;;;;6.80;6.20;;;;;;;;;;5052190;28;20441;-63
2023/10/25 09:12:05;;;;;;;6.50;6.00;;;;;;;;;;5055878;28;20490;-62
2023/10/25 09:14:49;;;;;;;12.70;11.00;;;;;;;;;;5056194;28;20409;-63
2023/10/25 09:17:15;;;;;;;4.33;4.13;;;;;;;;;;5056053;28;20424;-62
2023/10/25 09:19:44;;;;;;;5.87;5.37;;;;;;;;;;5056038;28;20442;-62
2023/10/25 09:22:25;;;;;;;4.10;3.80;;;;;;;;;;5056267;28;20458;-62
2023/10/25 09:24:54;;;;;;;3.50;3.40;;;;;;;;;;5055783;28;20774;-62
2023/10/25 09:27:21;;;;;;;3.47;3.20;;;;;;;;;;5055782;28;20910;-62
2023/10/25 09:29:47;;;;;;;4.53;3.23;;;;;;;;;;5055789;28;20431;-62
2023/10/25 09:32:13;;;;;;;3.90;3.70;;;;;;;;;;5054498;28;20417;-62
2023/10/25 09:34:39;;;;;;;4.47;4.27;;;;;;;;;;5055785;28;20420;-62
2023/10/25 09:37:06;;;;;;;4.53;4.13;;;;;;;;;;5055706;28;20464;-63
2023/10/25 09:39:35;;;;;;;4.47;4.27;;;;;;;;;;5055556;28;20448;-62
2023/10/25 09:42:02;;;;;;;4.33;4.13;;;;;;;;;;5055731;28;20460;-62
2023/10/25 09:44:31;;;;;;;4.70;4.40;;;;;;;;;;5055520;28;20436;-63
2023/10/25 09:47:01;;;;;;;5.33;3.90;;;;;;;;;;5055410;28;20905;-62
2023/10/25 09:49:31;;;;;;;4.60;4.20;;;;;;;;;;5055430;28;20417;-63
2023/10/25 09:52:07;;;;;;;3.80;3.50;;;;;;;;;;5055461;28;20869;-62
2023/10/25 09:54:37;;;;;;;3.40;2.80;;;;;;;;;;5055328;28;20409;-62
2023/10/25 09:57:05;;;;;;;5.73;3.50;;;;;;;;;;5055315;28;20418;-62
2023/10/25 09:59:32;;;;;;;6.00;5.47;;;;;;;;;;5055350;28;20406;-62
2023/10/25 10:01:59;;;;;;;6.03;4.30;;;;;;;;;;5054106;28;20464;-62
2023/10/25 10:04:35;;;;;;;7.73;6.60;;;;;;;;;;5055231;28;20419;-62
2023/10/25 10:07:06;;;;;;;5.00;4.60;;;;;;;;;;5055119;28;20454;-62
2023/10/25 10:09:37;;;;;;;8.00;6.90;;;;;;;;;;5055649;28;20420;-61
2023/10/25 10:12:07;;;;;;;10.60;9.50;;;;;;;;;;5055077;28;20433;-60
2023/10/25 10:14:37;;;;;;;7.13;6.53;;;;;;;;;;5055079;28;20414;-61
2023/10/25 10:17:04;;;;;;;4.80;4.50;;;;;;;;;;5054968;28;20422;-61
2023/10/25 10:19:31;;;;;;;2.13;1.60;;;;;;;;;;5054806;28;20438;-61
2023/10/25 10:22:03;;;;;;;1.47;1.47;;;;;;;;;;5054227;28;20549;-61
2023/10/25 10:24:39;;;;;;;4.40;0.90;;;;;;;;;;5054722;28;20407;-61
2023/10/25 10:27:05;;;;;;;1.43;0.90;;;;;;;;;;5055278;28;20403;-61
2023/10/25 10:29:31;;;;;;;0.80;0.80;;;;;;;;;;5055236;28;20499;-61
2023/10/25 10:32:04;;;;;;;1.27;1.27;;;;;;;;;;5054613;28;20435;-61
2023/10/25 10:34:43;;;;;;;2.40;0.97;;;;;;;;;;5054645;28;20932;-61
2023/10/25 10:37:13;;;;;;;1.07;1.07;;;;;;;;;;5054951;28;20403;-61
2023/10/25 10:39:56;;;;;;;1.60;0.97;;;;;;;;;;5054647;28;20438;-61
2023/10/25 10:42:32;;;;;;;1.90;0.90;;;;;;;;;;5053232;28;20560;-61
2023/10/25 10:44:58;;;;;;;0.73;0.67;;;;;;;;;;5054438;28;20472;-61
2023/10/25 10:47:45;;;;;;;1.00;1.00;;;;;;;;;;5054810;28;20415;-61
2023/10/25 10:50:12;;;;;;;2.50;1.00;;;;;;;;;;5054025;28;20473;-61
2023/10/25 10:52:39;;;;;;;0.80;0.80;;;;;;;;;;5052970;28;20486;-61
2023/10/25 10:55:06;;;;;;;1.10;0.80;;;;;;;;;;5054265;28;20494;-61
2023/10/25 10:57:32;;;;;;;2.60;0.90;;;;;;;;;;5054326;28;20400;-61
2023/10/25 10:59:58;;;;;;;1.33;1.20;;;;;;;;;;5054182;28;20432;-62
2023/10/25 11:02:25;;;;;;;2.10;0.90;;;;;;;;;;5054100;28;20457;-62
2023/10/25 11:04:51;;;;;;;0.60;0.60;;;;;;;;;;5054168;28;20413;-62
2023/10/25 11:07:17;;;;;;;0.40;0.40;;;;;;;;;;5052873;28;20412;-61
2023/10/25 11:09:44;;;;;;;0.60;0.60;;;;;;;;;;5052882;28;20424;-61
2023/10/25 11:12:10;;;;;;;2.10;1.10;;;;;;;;;;5053935;28;20515;-61
2023/10/25 11:14:40;;;;;;;2.73;0.93;;;;;;;;;;5054062;28;20790;-61
2023/10/25 11:17:06;;;;;;;0.70;0.70;;;;;;;;;;5053818;28;20459;-61
2023/10/25 11:19:33;;;;;;;1.77;0.57;;;;;;;;;;5053757;28;20441;-62
2023/10/25 11:22:00;;;;;;;0.53;0.53;;;;;;;;;;5053625;28;20981;-64
2023/10/25 11:24:28;;;;;;;0.67;0.67;;;;;;;;;;5053721;28;20409;-62
2023/10/25 11:26:54;;;;;;;1.20;1.10;;;;;;;;;;5053678;28;20482;-63
2023/10/25 11:29:24;;;;;;;1.53;1.07;;;;;;;;;;5053643;28;20416;-62
2023/10/25 11:31:55;;;;;;;2.50;0.90;;;;;;;;;;5053600;28;20438;-63
2023/10/25 11:34:21;;;;;;;3.00;0.90;;;;;;;;;;5053486;28;20851;-63
2023/10/25 11:36:50;;;;;;;0.93;0.60;;;;;;;;;;5053518;28;20440;-63
2023/10/25 11:39:16;;;;;;;1.80;1.70;;;;;;;;;;5053614;28;20426;-63
2023/10/25 11:41:42;;;;;;;0.70;0.70;;;;;;;;;;5053738;28;20467;-62
2023/10/25 11:44:08;;;;;;;1.90;0.90;;;;;;;;;;5052366;28;20443;-62
2023/10/25 11:46:38;;;;;;;0.70;0.70;;;;;;;;;;5053500;28;20432;-63
2023/10/25 11:49:05;;;;;;;0.70;0.53;;;;;;;;;;5053281;28;20412;-63
2023/10/25 11:51:32;;;;;;;2.90;0.40;;;;;;;;;;5053527;28;20510;-63
2023/10/25 11:54:00;;;;;;;0.70;0.70;;;;;;;;;;5053268;28;20455;-63
2023/10/25 11:56:26;;;;;;;1.37;0.70;;;;;;;;;;5052521;28;20439;-63
2023/10/25 11:58:52;;;;;;;0.57;0.57;;;;;;;;;;5053387;28;20419;-63
2023/10/25 12:01:18;;;;;;;0.70;0.60;;;;;;;;;;5051634;28;20439;-63
2023/10/25 12:03:45;;;;;;;1.90;0.70;;;;;;;;;;5053024;28;20464;-63
2023/10/25 12:06:11;;;;;;;0.70;0.70;;;;;;;;;;5052813;28;20427;-63
2023/10/25 12:08:38;;;;;;;1.43;0.90;;;;;;;;;;5053154;28;20422;-63
2023/10/25 12:11:10;;;;;;;0.87;0.73;;;;;;;;;;5052922;28;20441;-63
2023/10/25 12:13:36;;;;;;;0.60;0.60;;;;;;;;;;5052853;28;20498;-63
2023/10/25 12:16:02;;;;;;;0.70;0.70;;;;;;;;;;5052768;28;20499;-63
2023/10/25 12:18:28;;;;;;;1.73;1.63;;;;;;;;;;5052742;28;20403;-63
2023/10/25 12:20:54;;;;;;;1.10;1.10;;;;;;;;;;5052679;28;20498;-62
2023/10/25 12:23:20;;;;;;;2.00;1.37;;;;;;;;;;5052540;28;20469;-62
2023/10/25 12:25:46;;;;;;;1.47;1.47;;;;;;;;;;5052698;28;20411;-62
2023/10/25 12:28:12;;;;;;;1.53;1.53;;;;;;;;;;5052794;28;20891;-63
2023/10/25 12:30:40;;;;;;;2.73;1.43;;;;;;;;;;5052580;28;20479;-63
2023/10/25 12:33:06;;;;;;;1.23;1.17;;;;;;;;;;5052672;28;20812;-63
2023/10/25 12:35:35;;;;;;;1.27;1.03;;;;;;;;;;5052551;28;20505;-63
2023/10/25 12:38:01;;;;;;;2.63;1.30;;;;;;;;;;5052507;28;20472;-63
2023/10/25 12:40:27;;;;;;;1.30;1.20;;;;;;;;;;5052486;28;20814;-63
2023/10/25 12:42:55;;;;;;;2.23;1.60;;;;;;;;;;5052292;28;20466;-63
2023/10/25 12:45:21;;;;;;;2.10;1.40;;;;;;;;;;5051826;28;20417;-63
2023/10/25 12:47:47;;;;;;;7.10;1.03;;;;;;;;;;5052378;28;20426;-63
2023/10/25 12:50:13;;;;;;;0.70;0.70;;;;;;;;;;5052466;28;20915;-63
2023/10/25 12:52:39;;;;;;;4.13;1.30;;;;;;;;;;5052214;28;20449;-62
2023/10/25 12:55:05;;;;;;;1.53;1.43;;;;;;;;;;5052384;28;20817;-62
2023/10/25 12:57:31;;;;;;;2.57;1.00;;;;;;;;;;5052377;28;20464;-63
2023/10/25 12:59:57;;;;;;;2.10;1.40;;;;;;;;;;5052264;28;20881;-63
2023/10/25 13:02:23;;;;;;;3.60;1.13;;;;;;;;;;5052103;28;20466;-63
2023/10/25 13:04:51;;;;;;;3.03;1.27;;;;;;;;;;5052578;28;20410;-63
2023/10/25 13:07:20;;;;;;;1.03;1.03;;;;;;;;;;5052172;28;20433;-63
2023/10/25 13:09:46;;;;;;;0.70;0.70;;;;;;;;;;5052280;28;20471;-63
2023/10/25 13:12:11;;;;;;;0.70;0.70;;;;;;;;;;5052113;28;20454;-63
2023/10/25 13:14:37;;;;;;;1.57;1.10;;;;;;;;;;5052116;28;20418;-63
2023/10/25 13:17:03;;;;;;;0.80;0.80;;;;;;;;;;5052079;28;20936;-63
2023/10/25 13:19:29;;;;;;;5.90;0.80;;;;;;;;;;5051946;28;20438;-63
2023/10/25 13:21:58;;;;;;;1.20;1.00;;;;;;;;;;5052354;28;20468;-63
2023/10/25 13:24:26;;;;;;;0.97;0.87;;;;;;;;;;5052180;28;20410;-62
2023/10/25 13:26:52;;;;;;;1.30;0.63;;;;;;;;;;5051974;28;20878;-63
2023/10/25 13:29:18;;;;;;;1.07;0.80;;;;;;;;;;5052121;28;20406;-63
2023/10/25 13:31:47;;;;;;;2.20;0.60;;;;;;;;;;5051955;28;20457;-63
2023/10/25 13:34:13;;;;;;;0.83;0.83;;;;;;;;;;5052018;28;20460;-63
2023/10/25 13:36:43;;;;;;;1.67;0.60;;;;;;;;;;5050543;28;20441;-63
2023/10/25 13:39:09;;;;;;;0.50;0.50;;;;;;;;;;5052180;28;20765;-63
2023/10/25 13:41:37;;;;;;;3.03;0.73;;;;;;;;;;5051835;28;20500;-62
2023/10/25 13:44:03;;;;;;;1.90;0.40;;;;;;;;;;5051942;28;20463;-63
2023/10/25 13:46:30;;;;;;;0.40;0.40;;;;;;;;;;5051759;28;20965;-62
2023/10/25 13:48:58;;;;;;;1.50;1.40;;;;;;;;;;5051910;28;20758;-63
2023/10/25 13:51:24;;;;;;;5.37;4.37;;;;;;;;;;5051798;28;20410;-63
2023/10/25 13:53:50;;;;;;;0.50;0.50;;;;;;;;;;5051555;28;20488;-63
2023/10/25 13:56:18;;;;;;;0.57;0.57;;;;;;;;;;5051752;28;20428;-63
2023/10/25 13:58:44;;;;;;;0.50;0.50;;;;;;;;;;5054472;28;20452;-63
2023/10/25 14:01:10;;;;;;;2.63;0.60;;;;;;;;;;5055351;28;20834;-63
2023/10/25 14:03:36;;;;;;;1.03;0.63;;;;;;;;;;5055224;28;20553;-63
2023/10/25 14:06:05;;;;;;;0.60;0.60;;;;;;;;;;5055326;28;20442;-62
2023/10/25 14:08:32;;;;;;;1.37;0.80;;;;;;;;;;5055246;28;20448;-63
2023/10/25 14:10:58;;;;;;;4.00;0.60;;;;;;;;;;5054957;28;20425;-63
2023/10/25 14:13:26;;;;;;;0.60;0.60;;;;;;;;;;5055136;28;20464;-63
2023/10/25 14:15:52;;;;;;;0.63;0.63;;;;;;;;;;5055076;28;20950;-63
2023/10/25 14:18:18;;;;;;;0.77;0.77;;;;;;;;;;5054919;28;20532;-63
2023/10/25 14:20:44;;;;;;;2.77;0.70;;;;;;;;;;5055104;28;20814;-63
2023/10/25 14:23:12;;;;;;;0.60;0.60;;;;;;;;;;5054983;28;20960;-63
2023/10/25 14:25:39;;;;;;;2.60;0.67;;;;;;;;;;5054662;28;20410;-62
2023/10/25 14:28:11;;;;;;;3.40;1.07;;;;;;;;;;5054812;28;21141;-62
2023/10/25 14:30:40;;;;;;;1.23;0.60;;;;;;;;;;5054920;28;20422;-62
2023/10/25 14:33:09;;;;;;;1.90;0.50;;;;;;;;;;5054713;28;20794;-62
2023/10/25 14:35:36;;;;;;;2.73;1.10;;;;;;;;;;5054657;28;20905;-63
2023/10/25 14:38:02;;;;;;;1.00;0.80;;;;;;;;;;5054573;28;20466;-63
2023/10/25 14:40:28;;;;;;;1.43;0.77;;;;;;;;;;5054530;28;20967;-63